createdAt,value
2024-03-02T00:00:33.372Z,100146.13
2024-03-02T00:03:00.515Z,100135.66
2024-03-02T00:05:28.222Z,100139.44
2024-03-02T00:07:59.554Z,100134.44
2024-03-02T00:10:31.005Z,100136.59
2024-03-02T00:12:58.794Z,100134.06
2024-03-02T00:15:31.965Z,100135.38
2024-03-02T00:18:00.233Z,100133.09
2024-03-02T00:20:30.749Z,100127.84
2024-03-02T00:23:06.624Z,100134.59
2024-03-02T00:25:48.009Z,100129.13
2024-03-02T00:28:21.232Z,100132.94
2024-03-02T00:30:59.164Z,100137.78
2024-03-02T00:33:37.233Z,100133.41
2024-03-02T00:36:06.335Z,100132.56
2024-03-02T00:38:35.280Z,100131.56
2024-03-02T00:41:10.126Z,100143.09
2024-03-02T00:43:59.249Z,100143.09
2024-03-02T00:46:26.690Z,100137.25
2024-03-02T00:48:59.058Z,100139.97
2024-03-02T00:51:28.811Z,100140.22
2024-03-02T00:53:59.024Z,100136.06
2024-03-02T00:56:27.541Z,100137.94
2024-03-02T00:58:55.096Z,100145.50
2024-03-02T01:01:22.639Z,100145.75
2024-03-02T01:03:50.718Z,100137.78
2024-03-02T01:06:18.612Z,100134.22
2024-03-02T01:08:46.003Z,100128.38
2024-03-02T01:11:13.493Z,100131.13
2024-03-02T01:13:40.689Z,100124.81
2024-03-02T01:16:08.367Z,100119.56
2024-03-02T01:18:35.604Z,100124.00
2024-03-02T01:21:03.125Z,100121.72
2024-03-02T01:23:30.548Z,100118.41
2024-03-02T01:25:57.779Z,100111.50
2024-03-02T01:28:25.230Z,100114.44
2024-03-02T01:30:52.566Z,100112.78
2024-03-02T01:33:21.314Z,100110.47
2024-03-02T01:35:48.779Z,100114.03
2024-03-02T01:38:15.844Z,100105.22
2024-03-02T01:40:43.541Z,100111.94
2024-03-02T01:43:10.646Z,100115.50
2024-03-02T01:45:38.800Z,100113.81
2024-03-02T01:48:08.580Z,100121.13
2024-03-02T01:50:36.636Z,100114.13
2024-03-02T01:53:06.493Z,100120.22
2024-03-02T01:55:35.567Z,100110.97
2024-03-02T01:58:03.104Z,100105.06
2024-03-02T02:00:31.514Z,100105.06
2024-03-02T02:02:59.197Z,100104.59
2024-03-02T02:05:26.837Z,100110.66
2024-03-02T02:07:54.097Z,100109.59
2024-03-02T02:10:21.283Z,100121.13
2024-03-02T02:12:48.732Z,100118.41
2024-03-02T02:15:31.141Z,100113.75
2024-03-02T02:17:59.495Z,100109.16
2024-03-02T02:20:27.216Z,100114.59
2024-03-02T02:23:04.621Z,100106.66
2024-03-02T02:25:31.862Z,100104.75
2024-03-02T02:27:59.791Z,100097.03
2024-03-02T02:30:29.582Z,100098.69
2024-03-02T02:32:57.470Z,100100.34
2024-03-02T02:35:27.916Z,100092.41
2024-03-02T02:37:56.687Z,100097.03
2024-03-02T02:40:24.355Z,100089.91
2024-03-02T02:42:53.961Z,100089.06
2024-03-02T02:45:21.709Z,100096.41
2024-03-02T02:47:48.961Z,100093.66
2024-03-02T02:50:16.151Z,100099.38
2024-03-02T02:52:43.962Z,100101.25
2024-03-02T02:55:12.980Z,100101.72
2024-03-02T02:57:44.699Z,100100.91
2024-03-02T03:00:18.287Z,100104.44
2024-03-02T03:02:49.313Z,100110.97
2024-03-02T03:05:17.697Z,100100.03
2024-03-02T03:07:46.256Z,100103.84
2024-03-02T03:10:15.382Z,100102.19
2024-03-02T03:12:45.161Z,100103.00
2024-03-02T03:15:14.027Z,100107.00
2024-03-02T03:17:41.864Z,100106.41
2024-03-02T03:20:12.764Z,100108.31
2024-03-02T03:22:40.516Z,100101.41
2024-03-02T03:25:11.332Z,100106.84
2024-03-02T03:27:38.592Z,100107.34
2024-03-02T03:30:07.906Z,100111.09
2024-03-02T03:32:35.821Z,100120.34
2024-03-02T03:35:03.062Z,100111.53
2024-03-02T03:37:34.577Z,100120.75
2024-03-02T03:40:04.303Z,100116.13
2024-03-02T03:42:31.463Z,100112.56
2024-03-02T03:44:58.573Z,100115.06
2024-03-02T03:47:25.774Z,100120.34
2024-03-02T03:49:52.935Z,100113.00
2024-03-02T03:52:20.040Z,100117.41
2024-03-02T03:54:47.165Z,100107.94
2024-03-02T03:57:14.251Z,100109.81
2024-03-02T03:59:41.370Z,100106.63
2024-03-02T04:02:09.749Z,100111.88
2024-03-02T04:04:36.975Z,100119.56
2024-03-02T04:07:04.324Z,100124.81
2024-03-02T04:09:31.462Z,100117.25
2024-03-02T04:11:58.569Z,100111.81
2024-03-02T04:14:25.791Z,100115.34
2024-03-02T04:16:53.273Z,100116.19
2024-03-02T04:19:20.326Z,100118.69
2024-03-02T04:21:47.545Z,100108.84
2024-03-02T04:24:14.821Z,100126.41
2024-03-02T04:26:41.975Z,100120.94
2024-03-02T04:29:09.159Z,100115.34
2024-03-02T04:31:36.317Z,100129.75
2024-03-02T04:34:03.481Z,100120.72
2024-03-02T04:36:31.058Z,100124.31
2024-03-02T04:38:58.266Z,100122.16
2024-03-02T04:41:25.362Z,100122.16
2024-03-02T04:43:52.402Z,100122.41
2024-03-02T04:46:19.646Z,100119.69
2024-03-02T04:48:46.832Z,100118.84
2024-03-02T04:51:14.827Z,100122.03
2024-03-02T04:53:42.046Z,100131.84
2024-03-02T04:56:24.463Z,100127.25
2024-03-02T04:58:51.536Z,100120.13
2024-03-02T05:01:19.013Z,100115.97
2024-03-02T05:03:46.671Z,100120.56
2024-03-02T05:06:13.795Z,100121.44
2024-03-02T05:08:41.085Z,100113.47
2024-03-02T05:11:26.592Z,100123.53
2024-03-02T05:13:53.679Z,100124.38
2024-03-02T05:16:20.874Z,100127.31
2024-03-02T05:18:48.178Z,100132.19
2024-03-02T05:21:15.512Z,100132.19
2024-03-02T05:23:42.872Z,100130.50
2024-03-02T05:26:10.856Z,100133.22
2024-03-02T05:28:38.676Z,100134.28
2024-03-02T05:31:06.738Z,100149.59
2024-03-02T05:33:34.768Z,100139.16
2024-03-02T05:36:03.348Z,100140.81
2024-03-02T05:38:30.687Z,100138.38
2024-03-02T05:40:57.834Z,100148.97
2024-03-02T05:43:25.218Z,100148.97
2024-03-02T05:45:52.573Z,100153.84
2024-03-02T05:48:19.889Z,100155.50
2024-03-02T05:50:47.303Z,100153.00
2024-03-02T05:53:14.504Z,100152.16
2024-03-02T05:55:41.610Z,100162.25
2024-03-02T05:58:24.132Z,100159.53
2024-03-02T06:00:51.581Z,100161.88
2024-03-02T06:03:18.697Z,100149.31
2024-03-02T06:05:45.830Z,100153.94
2024-03-02T06:08:13.038Z,100175.28
2024-03-02T06:10:40.058Z,100184.53
2024-03-02T06:13:07.126Z,100179.97
2024-03-02T06:15:37.434Z,100183.78
2024-03-02T06:18:04.851Z,100179.34
2024-03-02T06:20:36.330Z,100180.41
2024-03-02T06:23:04.387Z,100185.66
2024-03-02T06:25:31.552Z,100187.31
2024-03-02T06:27:58.717Z,100190.88
2024-03-02T06:30:26.301Z,100193.19
2024-03-02T06:32:53.554Z,100193.78
2024-03-02T06:35:20.875Z,100200.88
2024-03-02T06:37:47.963Z,100195.22
2024-03-02T06:40:15.140Z,100202.53
2024-03-02T06:42:42.397Z,100208.22
2024-03-02T06:45:09.690Z,100207.97
2024-03-02T06:47:37.028Z,100200.66
2024-03-02T06:50:04.427Z,100207.75
2024-03-02T06:52:31.596Z,100213.44
2024-03-02T06:54:58.836Z,100213.84
2024-03-02T06:57:25.976Z,100213.84
2024-03-02T06:59:56.248Z,100223.69
2024-03-02T07:02:24.337Z,100226.84
2024-03-02T07:04:52.663Z,100219.28
2024-03-02T07:07:19.819Z,100207.97
2024-03-02T07:09:47.260Z,100217.84
2024-03-02T07:12:14.485Z,100224.75
2024-03-02T07:15:12.714Z,100235.19
2024-03-02T07:17:39.930Z,100237.31
2024-03-02T07:20:08.157Z,100233.97
2024-03-02T07:22:36.069Z,100232.69
2024-03-02T07:25:04.408Z,100240.66
2024-03-02T07:27:33.220Z,100236.25
2024-03-02T07:30:00.469Z,100240.28
2024-03-02T07:32:27.683Z,100241.94
2024-03-02T07:34:54.745Z,100249.91
2024-03-02T07:37:22.107Z,100249.91
2024-03-02T07:39:49.406Z,100249.00
2024-03-02T07:42:16.979Z,100258.59
2024-03-02T07:44:46.636Z,100261.81
2024-03-02T07:47:14.287Z,100259.31
2024-03-02T07:49:41.628Z,100263.69
2024-03-02T07:52:09.021Z,100263.06
2024-03-02T07:54:36.259Z,100265.94
2024-03-02T07:57:03.556Z,100267.19
2024-03-02T07:59:30.820Z,100268.63
2024-03-02T08:01:58.193Z,100270.69
2024-03-02T08:04:25.955Z,100272.16
2024-03-02T08:06:53.198Z,100266.75
2024-03-02T08:09:20.521Z,100265.03
2024-03-02T08:11:47.665Z,100270.31
2024-03-02T08:14:14.778Z,100280.31
2024-03-02T08:16:42.628Z,100278.00
2024-03-02T08:19:10.471Z,100281.72
2024-03-02T08:21:37.717Z,100281.28
2024-03-02T08:24:05.442Z,100287.13
2024-03-02T08:26:33.114Z,100287.53
2024-03-02T08:29:02.971Z,100288.72
2024-03-02T08:31:30.555Z,100288.06
2024-03-02T08:33:58.737Z,100290.75
2024-03-02T08:36:26.075Z,100287.75
2024-03-02T08:38:53.449Z,100289.34
2024-03-02T08:41:20.490Z,100296.16
2024-03-02T08:43:47.785Z,100291.88
2024-03-02T08:46:15.319Z,100283.09
2024-03-02T08:48:42.481Z,100296.88
2024-03-02T08:51:11.638Z,100298.91
2024-03-02T08:53:39.816Z,100298.00
2024-03-02T08:56:07.552Z,100291.25
2024-03-02T08:58:34.681Z,100291.13
2024-03-02T09:01:02.207Z,100288.78
2024-03-02T09:03:29.463Z,100292.31
2024-03-02T09:05:57.351Z,100294.75
2024-03-02T09:08:24.660Z,100284.63
2024-03-02T09:10:51.733Z,100290.88
2024-03-02T09:13:19.254Z,100273.59
2024-03-02T09:15:46.612Z,100277.31
2024-03-02T09:18:14.862Z,100276.03
2024-03-02T09:20:42.189Z,100278.13
2024-03-02T09:23:09.384Z,100281.81
2024-03-02T09:25:37.606Z,100276.75
2024-03-02T09:28:05.077Z,100268.31
2024-03-02T09:30:32.516Z,100277.88
2024-03-02T09:35:29.685Z,100262.19
2024-03-02T09:37:57.360Z,100280.19
2024-03-02T09:40:24.432Z,100263.66
2024-03-02T09:42:54.521Z,100287.06
2024-03-02T09:45:25.219Z,100271.53
2024-03-02T09:47:52.827Z,100275.94
2024-03-02T09:50:20.151Z,100274.28
2024-03-02T09:52:53.234Z,100269.41
2024-03-02T09:55:20.717Z,100278.19
2024-03-02T09:57:50.068Z,100271.06
2024-03-02T10:00:17.610Z,100270.47
2024-03-02T10:02:45.005Z,100271.53
2024-03-02T10:05:13.794Z,100273.66
2024-03-02T10:07:40.840Z,100273.88
2024-03-02T10:10:15.458Z,100273.66
2024-03-02T10:12:42.781Z,100275.56
2024-03-02T10:15:11.258Z,100278.28
2024-03-02T10:17:38.512Z,100272.84
2024-03-02T10:20:30.074Z,100272.00
2024-03-02T10:23:10.676Z,100264.00
2024-03-02T10:25:43.865Z,100268.19
2024-03-02T10:28:19.507Z,100266.09
2024-03-02T10:30:51.298Z,100267.75
2024-03-02T10:33:19.050Z,100249.94
2024-03-02T10:35:46.450Z,100254.09
2024-03-02T10:38:13.640Z,100253.03
2024-03-02T10:40:40.739Z,100259.56
2024-03-02T10:43:09.358Z,100257.91
2024-03-02T10:45:36.619Z,100251.38
2024-03-02T10:48:04.317Z,100249.72
2024-03-02T10:50:32.220Z,100235.75
2024-03-02T10:52:59.413Z,100236.94
2024-03-02T10:55:26.728Z,100246.78
2024-03-02T10:57:55.688Z,100250.19
2024-03-02T11:00:31.592Z,100246.50
2024-03-02T11:03:07.756Z,100252.31
2024-03-02T11:05:38.316Z,100233.84
2024-03-02T11:08:13.847Z,100236.28
2024-03-02T11:10:52.893Z,100233.06
2024-03-02T11:13:33.085Z,100225.22
2024-03-02T11:16:36.639Z,100217.59
2024-03-02T11:19:17.703Z,100215.22
2024-03-02T11:21:46.459Z,100214.31
2024-03-02T11:24:22.708Z,100222.44
2024-03-02T11:26:52.534Z,100211.91
2024-03-02T11:29:39.906Z,100203.88
2024-03-02T11:32:15.265Z,100201.28
2024-03-02T11:34:48.021Z,100204.19
2024-03-02T11:37:15.825Z,100206.25
2024-03-02T11:39:44.740Z,100205.53
2024-03-02T11:42:13.260Z,100206.53
2024-03-02T11:44:40.795Z,100199.78
2024-03-02T11:47:12.058Z,100195.19
2024-03-02T11:50:00.641Z,100190.09
2024-03-02T11:52:29.659Z,100192.13
2024-03-02T11:54:57.241Z,100196.28
2024-03-02T11:57:24.826Z,100194.19
2024-03-02T11:59:52.269Z,100190.38
2024-03-02T12:02:23.302Z,100184.91
2024-03-02T12:04:51.202Z,100177.81
2024-03-02T12:07:23.826Z,100180.13
2024-03-02T12:10:01.946Z,100172.72
2024-03-02T12:12:29.261Z,100173.09
2024-03-02T12:14:57.158Z,100166.81
2024-03-02T12:17:24.575Z,100158.84
2024-03-02T12:19:51.980Z,100151.25
2024-03-02T12:22:19.191Z,100155.06
2024-03-02T12:24:47.728Z,100155.91
2024-03-02T12:27:16.937Z,100158.41
2024-03-02T12:29:44.576Z,100156.13
2024-03-02T12:32:11.747Z,100157.78
2024-03-02T12:34:39.966Z,100151.75
2024-03-02T12:37:07.147Z,100143.53
2024-03-02T12:39:34.564Z,100144.84
2024-03-02T12:42:04.216Z,100132.00
2024-03-02T12:44:31.677Z,100136.22
2024-03-02T12:47:00.320Z,100143.38
2024-03-02T12:49:30.045Z,100128.66
2024-03-02T12:51:59.412Z,100121.75
2024-03-02T12:54:28.424Z,100122.22
2024-03-02T12:56:57.929Z,100120.78
2024-03-02T12:59:28.186Z,100122.44
2024-03-02T13:01:58.636Z,100120.78
2024-03-02T13:04:31.089Z,100126.72
2024-03-02T13:07:01.460Z,100126.31
2024-03-02T13:09:28.881Z,100121.69
2024-03-02T13:11:56.427Z,100131.09
2024-03-02T13:14:26.266Z,100137.16
2024-03-02T13:16:54.149Z,100133.97
2024-03-02T13:19:21.367Z,100136.47
2024-03-02T13:21:48.489Z,100136.22
2024-03-02T13:24:15.814Z,100130.31
2024-03-02T13:26:42.974Z,100138.38
2024-03-02T13:29:10.403Z,100130.88
2024-03-02T13:31:37.676Z,100133.34
2024-03-02T13:34:04.982Z,100122.28
2024-03-02T13:36:32.160Z,100115.03
2024-03-02T13:38:59.607Z,100116.59
2024-03-02T13:41:26.889Z,100120.03
2024-03-02T13:43:54.815Z,100111.09
2024-03-02T13:46:22.638Z,100105.50
2024-03-02T13:48:49.856Z,100105.50
2024-03-02T13:51:16.956Z,100102.16
2024-03-02T13:53:44.021Z,100114.75
2024-03-02T13:56:11.426Z,100111.41
2024-03-02T13:58:38.823Z,100115.19
2024-03-02T14:01:07.070Z,100118.53
2024-03-02T14:03:34.538Z,100118.28
2024-03-02T14:06:01.852Z,100116.78
2024-03-02T14:08:29.022Z,100115.47
2024-03-02T14:10:58.981Z,100110.50
2024-03-02T14:13:27.565Z,100111.72
2024-03-02T14:15:55.429Z,100124.88
2024-03-02T14:18:23.195Z,100123.34
2024-03-02T14:20:53.938Z,100116.59
2024-03-02T14:23:21.897Z,100123.13
2024-03-02T14:25:49.456Z,100118.34
2024-03-02T14:28:36.907Z,100117.44
2024-03-02T14:31:05.258Z,100122.91
2024-03-02T14:33:33.120Z,100119.03
2024-03-02T14:36:00.391Z,100116.88
2024-03-02T14:38:28.168Z,100115.94
2024-03-02T14:40:55.456Z,100123.66
2024-03-02T14:43:22.807Z,100117.59
2024-03-02T14:45:50.834Z,100115.69
2024-03-02T14:48:18.240Z,100112.72
2024-03-02T14:50:45.760Z,100109.41
2024-03-02T14:53:13.576Z,100105.59
2024-03-02T14:55:40.666Z,100118.56
2024-03-02T14:58:09.648Z,100112.91
2024-03-02T15:00:37.342Z,100116.47
2024-03-02T15:03:07.734Z,100110.16
2024-03-02T15:05:34.864Z,100113.03
2024-03-02T15:08:05.584Z,100113.66
2024-03-02T15:10:33.124Z,100113.03
2024-03-02T15:13:00.408Z,100105.47
2024-03-02T15:15:28.028Z,100110.47
2024-03-02T15:17:55.281Z,100108.69
2024-03-02T15:20:23.072Z,100120.41
2024-03-02T15:22:50.243Z,100118.34
2024-03-02T15:25:17.706Z,100118.00
2024-03-02T15:27:44.941Z,100122.63
2024-03-02T15:30:12.377Z,100130.13
2024-03-02T15:32:40.105Z,100126.53
2024-03-02T15:35:07.867Z,100133.84
2024-03-02T15:37:35.118Z,100138.81
2024-03-02T15:40:09.863Z,100132.31
2024-03-02T15:42:37.534Z,100134.56
2024-03-02T15:45:06.066Z,100139.56
2024-03-02T15:47:34.963Z,100134.13
2024-03-02T15:50:02.325Z,100140.41
2024-03-02T15:52:29.702Z,100137.91
2024-03-02T15:54:56.887Z,100134.13
2024-03-02T15:57:24.442Z,100145.03
2024-03-02T15:59:51.715Z,100140.03
2024-03-02T16:02:18.814Z,100149.66
2024-03-02T16:04:45.949Z,100143.47
2024-03-02T16:07:13.502Z,100149.72
2024-03-02T16:09:40.722Z,100154.81
2024-03-02T16:12:08.090Z,100156.75
2024-03-02T16:14:36.755Z,100155.66
2024-03-02T16:17:05.820Z,100159.63
2024-03-02T16:19:34.388Z,100166.13
2024-03-02T16:22:01.720Z,100154.38
2024-03-02T16:24:28.937Z,100154.31
2024-03-02T16:26:56.049Z,100150.38
2024-03-02T16:29:23.275Z,100151.44
2024-03-02T16:31:50.306Z,100135.38
2024-03-02T16:34:17.461Z,100141.97
2024-03-02T16:36:44.863Z,100146.13
2024-03-02T16:39:13.095Z,100153.25
2024-03-02T16:41:44.315Z,100153.84
2024-03-02T16:44:11.432Z,100152.31
2024-03-02T16:46:41.729Z,100156.97
2024-03-02T16:49:09.137Z,100162.78
2024-03-02T16:51:48.013Z,100156.03
2024-03-02T16:54:15.209Z,100172.19
2024-03-02T16:56:45.907Z,100172.78
2024-03-02T16:59:13.078Z,100176.13
2024-03-02T17:01:40.251Z,100184.09
2024-03-02T17:04:08.484Z,100180.34
2024-03-02T17:06:35.993Z,100178.81
2024-03-02T17:09:03.828Z,100184.03
2024-03-02T17:11:32.308Z,100180.25
2024-03-02T17:14:00.349Z,100187.38
2024-03-02T17:16:27.666Z,100183.22
2024-03-02T17:18:54.830Z,100194.34
2024-03-02T17:21:21.933Z,100201.69
2024-03-02T17:23:49.154Z,100201.31
2024-03-02T17:26:16.274Z,100211.00
2024-03-02T17:28:43.403Z,100211.00
2024-03-02T17:31:10.748Z,100208.75
2024-03-02T17:33:38.211Z,100204.34
2024-03-02T17:36:05.633Z,100217.75
2024-03-02T17:38:32.932Z,100216.94
2024-03-02T17:41:00.332Z,100216.09
2024-03-02T17:43:27.462Z,100222.41
2024-03-02T17:45:55.037Z,100224.06
2024-03-02T17:48:23.345Z,100218.81
2024-03-02T17:50:50.935Z,100218.22
2024-03-02T17:53:18.444Z,100219.06
2024-03-02T17:55:45.970Z,100212.16
2024-03-02T17:58:13.286Z,100222.84
2024-03-02T18:00:42.333Z,100223.69
2024-03-02T18:03:09.517Z,100223.22
2024-03-02T18:05:39.445Z,100229.53
2024-03-02T18:08:07.449Z,100222.41
2024-03-02T18:10:35.120Z,100225.56
2024-03-02T18:13:02.321Z,100231.63
2024-03-02T18:15:29.652Z,100229.53
2024-03-02T18:17:57.180Z,100232.84
2024-03-02T18:20:24.281Z,100236.06
2024-03-02T18:22:51.472Z,100235.44
2024-03-02T18:25:18.732Z,100244.69
2024-03-02T18:27:46.439Z,100237.56
2024-03-02T18:30:13.930Z,100243.47
2024-03-02T18:32:40.988Z,100238.00
2024-03-02T18:35:09.856Z,100248.94
2024-03-02T18:37:37.908Z,100241.81
2024-03-02T18:40:06.763Z,100249.38
2024-03-02T18:42:34.208Z,100259.84
2024-03-02T18:45:04.846Z,100252.28
2024-03-02T18:47:36.433Z,100255.59
2024-03-02T18:50:06.802Z,100252.66
2024-03-02T18:52:36.321Z,100262.50
2024-03-02T18:55:08.544Z,100271.53
2024-03-02T18:57:36.360Z,100266.53
2024-03-02T19:00:06.670Z,100277.00
2024-03-02T19:02:33.939Z,100270.91
2024-03-02T19:05:01.721Z,100277.88
2024-03-02T19:07:28.720Z,100285.91
2024-03-02T19:09:56.541Z,100279.25
2024-03-02T19:12:24.963Z,100287.22
2024-03-02T19:14:52.489Z,100288.50
2024-03-02T19:17:19.579Z,100288.72
2024-03-02T19:19:46.782Z,100289.78
2024-03-02T19:22:13.943Z,100293.56
2024-03-02T19:24:41.239Z,100292.72
2024-03-02T19:27:08.571Z,100295.69
2024-03-02T19:29:35.793Z,100286.69
2024-03-02T19:32:08.344Z,100280.66
2024-03-02T19:34:39.451Z,100291.97
2024-03-02T19:37:06.648Z,100298.94
2024-03-02T19:39:37.365Z,100302.09
2024-03-02T19:42:04.924Z,100309.69
2024-03-02T19:44:34.048Z,100308.47
2024-03-02T19:47:01.499Z,100312.25
2024-03-02T19:49:28.778Z,100307.59
2024-03-02T19:51:55.903Z,100312.63
2024-03-02T19:54:23.203Z,100310.91
2024-03-02T19:56:50.420Z,100308.78
2024-03-02T19:59:17.436Z,100315.31
2024-03-02T20:01:45.472Z,100314.47
2024-03-02T20:04:12.604Z,100321.81
2024-03-02T20:06:39.812Z,100328.94
2024-03-02T20:09:07.315Z,100327.88
2024-03-02T20:11:37.489Z,100332.28
2024-03-02T20:14:04.670Z,100336.06
2024-03-02T20:16:31.893Z,100326.75
2024-03-02T20:18:59.082Z,100324.88
2024-03-02T20:21:26.256Z,100322.16
2024-03-02T20:23:53.542Z,100321.94
2024-03-02T20:26:22.462Z,100328.84
2024-03-02T20:28:53.355Z,100328.00
2024-03-02T20:31:21.671Z,100333.81
2024-03-02T20:33:48.895Z,100339.06
2024-03-02T20:36:16.888Z,100334.25
2024-03-02T20:38:44.093Z,100330.88
2024-03-02T20:41:18.930Z,100326.88
2024-03-02T20:43:46.796Z,100334.63
2024-03-02T20:46:14.837Z,100336.50
2024-03-02T20:48:42.414Z,100340.06
2024-03-02T20:51:09.935Z,100330.22
2024-03-02T20:53:37.414Z,100332.53
2024-03-02T20:56:05.228Z,100338.00
2024-03-02T20:58:32.386Z,100339.91
2024-03-02T21:00:59.710Z,100338.84
2024-03-02T21:03:26.872Z,100340.13
2024-03-02T21:05:53.973Z,100337.19
2024-03-02T21:08:21.286Z,100348.09
2024-03-02T21:10:49.926Z,100354.00
2024-03-02T21:13:17.940Z,100352.34
2024-03-02T21:15:45.568Z,100343.09
2024-03-02T21:18:12.735Z,100350.19
2024-03-02T21:20:39.860Z,100349.78
2024-03-02T21:23:12.344Z,100354.31
2024-03-02T21:25:40.830Z,100349.28
2024-03-02T21:28:08.125Z,100361.47
2024-03-02T21:30:36.456Z,100358.56
2024-03-02T21:33:05.480Z,100360.69
2024-03-02T21:35:33.211Z,100360.69
2024-03-02T21:38:04.014Z,100366.16
2024-03-02T21:40:32.263Z,100363.03
2024-03-02T21:43:00.295Z,100362.56
2024-03-02T21:45:27.948Z,100371.16
2024-03-02T21:47:55.202Z,100362.34
2024-03-02T21:50:22.452Z,100371.38
2024-03-02T21:52:54.741Z,100368.66
2024-03-02T21:55:22.713Z,100369.47
2024-03-02T21:57:49.977Z,100372.84
2024-03-02T22:00:18.817Z,100370.69
2024-03-02T22:02:45.910Z,100365.25
2024-03-02T22:05:13.353Z,100366.53
2024-03-02T22:07:40.652Z,100369.03
2024-03-02T22:10:08.405Z,100369.03
2024-03-02T22:12:35.514Z,100373.91
2024-03-02T22:15:02.768Z,100376.84
2024-03-02T22:17:30.368Z,100377.06
2024-03-02T22:19:57.822Z,100378.72
2024-03-02T22:22:25.014Z,100369.31
2024-03-02T22:24:52.207Z,100375.41
2024-03-02T22:27:19.364Z,100380.22
2024-03-02T22:29:46.438Z,100381.28
2024-03-02T22:32:13.779Z,100382.78
2024-03-02T22:34:40.946Z,100381.13
2024-03-02T22:37:08.477Z,100380.06
2024-03-02T22:39:35.764Z,100377.56
2024-03-02T22:42:02.830Z,100379.47
2024-03-02T22:44:30.118Z,100383.84
2024-03-02T22:46:57.510Z,100380.53
2024-03-02T22:49:24.596Z,100373.22
2024-03-02T22:51:52.022Z,100380.59
2024-03-02T22:54:19.310Z,100382.69
2024-03-02T22:56:47.097Z,100381.88
2024-03-02T22:59:15.284Z,100385.19
2024-03-02T23:01:44.917Z,100376.41
2024-03-02T23:04:12.545Z,100383.97
2024-03-02T23:06:39.896Z,100381.88
2024-03-02T23:09:07.164Z,100385.19
2024-03-02T23:11:35.187Z,100379.72
2024-03-02T23:14:02.263Z,100378.28
2024-03-02T23:16:30.208Z,100379.34
2024-03-02T23:18:57.641Z,100383.97
2024-03-02T23:21:24.873Z,100391.06
2024-03-02T23:23:54.252Z,100378.50
2024-03-02T23:26:26.329Z,100379.13
2024-03-02T23:28:53.450Z,100382.47
2024-03-02T23:31:21.290Z,100377.00
2024-03-02T23:33:51.805Z,100369.41
2024-03-02T23:36:19.156Z,100365.03
2024-03-02T23:38:46.189Z,100379.72
2024-03-02T23:41:14.106Z,100372.41
2024-03-02T23:43:41.284Z,100381.41
2024-03-02T23:46:09.689Z,100377.84
2024-03-02T23:48:37.057Z,100379.72
2024-03-02T23:51:04.623Z,100378.50
2024-03-02T23:53:32.163Z,100384.34
2024-03-02T23:56:12.085Z,100381.88
2024-03-02T23:58:39.982Z,100381.88
